sensor_id;sensor_type;location;lat;lon;timestamp;pressure;altitude;pressure_sealevel;temperature;humidity
21240;BME280;10778;48.962;9.018;2023-07-22T00:00:53;99037.69;;;12.17;100.00
21240;BME280;10778;48.962;9.018;2023-07-22T00:03:19;99045.88;;;12.14;100.00
21240;BME280;10778;48.962;9.018;2023-07-22T00:05:45;99051.22;;;12.22;100.00
21240;BME280;10778;48.962;9.018;2023-07-22T00:08:11;99054.03;;;12.21;100.00
21240;BME280;10778;48.962;9.018;2023-07-22T00:10:41;99043.84;;;12.26;100.00
21240;BME280;10778;48.962;9.018;2023-07-22T00:13:08;99046.88;;;12.13;100.00
21240;BME280;10778;48.962;9.018;2023-07-22T00:15:34;99051.84;;;12.16;100.00
21240;BME280;10778;48.962;9.018;2023-07-22T00:18:00;99048.00;;;12.29;100.00
21240;BME280;10778;48.962;9.018;2023-07-22T00:20:26;99050.34;;;12.32;100.00
21240;BME280;10778;48.962;9.018;2023-07-22T00:22:52;99044.09;;;12.33;100.00
21240;BME280;10778;48.962;9.018;2023-07-22T00:25:18;99046.13;;;12.39;100.00
21240;BME280;10778;48.962;9.018;2023-07-22T00:27:44;99045.97;;;12.41;100.00
21240;BME280;10778;48.962;9.018;2023-07-22T00:30:10;99042.50;;;12.40;100.00
21240;BME280;10778;48.962;9.018;2023-07-22T00:32:37;99042.50;;;12.40;100.00
21240;BME280;10778;48.962;9.018;2023-07-22T00:35:04;99043.19;;;12.42;100.00
21240;BME280;10778;48.962;9.018;2023-07-22T00:37:31;99042.72;;;12.47;100.00
21240;BME280;10778;48.962;9.018;2023-07-22T00:39:58;99042.22;;;12.43;100.00
21240;BME280;10778;48.962;9.018;2023-07-22T00:42:24;99052.09;;;12.41;100.00
21240;BME280;10778;48.962;9.018;2023-07-22T00:44:50;99050.28;;;12.42;100.00
21240;BME280;10778;48.962;9.018;2023-07-22T00:47:17;99047.63;;;12.42;100.00
21240;BME280;10778;48.962;9.018;2023-07-22T00:49:44;99042.88;;;12.45;100.00
21240;BME280;10778;48.962;9.018;2023-07-22T00:52:10;99043.56;;;12.47;100.00
21240;BME280;10778;48.962;9.018;2023-07-22T00:54:36;99045.53;;;12.45;100.00
21240;BME280;10778;48.962;9.018;2023-07-22T00:57:02;99043.66;;;12.37;100.00
21240;BME280;10778;48.962;9.018;2023-07-22T00:59:28;99036.84;;;12.35;100.00
21240;BME280;10778;48.962;9.018;2023-07-22T01:01:54;99028.13;;;12.34;100.00
21240;BME280;10778;48.962;9.018;2023-07-22T01:04:22;99036.03;;;12.34;100.00
21240;BME280;10778;48.962;9.018;2023-07-22T01:06:49;99033.84;;;12.30;100.00
21240;BME280;10778;48.962;9.018;2023-07-22T01:09:16;99034.81;;;12.29;100.00
21240;BME280;10778;48.962;9.018;2023-07-22T01:11:42;99035.13;;;12.26;100.00
21240;BME280;10778;48.962;9.018;2023-07-22T01:14:09;99040.69;;;12.22;100.00
21240;BME280;10778;48.962;9.018;2023-07-22T01:16:35;99037.53;;;12.19;100.00
21240;BME280;10778;48.962;9.018;2023-07-22T01:19:01;99035.19;;;12.16;100.00
21240;BME280;10778;48.962;9.018;2023-07-22T01:21:31;99035.78;;;12.09;100.00
21240;BME280;10778;48.962;9.018;2023-07-22T01:23:58;99029.28;;;12.04;100.00
21240;BME280;10778;48.962;9.018;2023-07-22T01:26:24;99033.59;;;12.05;100.00
21240;BME280;10778;48.962;9.018;2023-07-22T01:28:50;99031.25;;;12.02;100.00
21240;BME280;10778;48.962;9.018;2023-07-22T01:31:16;99030.44;;;12.01;100.00
21240;BME280;10778;48.962;9.018;2023-07-22T01:33:42;99033.88;;;12.02;100.00
21240;BME280;10778;48.962;9.018;2023-07-22T01:36:08;99028.03;;;11.98;100.00
21240;BME280;10778;48.962;9.018;2023-07-22T01:38:34;99024.47;;;11.99;100.00
21240;BME280;10778;48.962;9.018;2023-07-22T01:41:01;99027.38;;;11.96;100.00
21240;BME280;10778;48.962;9.018;2023-07-22T01:43:27;99031.03;;;11.85;100.00
21240;BME280;10778;48.962;9.018;2023-07-22T01:45:54;99033.06;;;11.73;100.00
21240;BME280;10778;48.962;9.018;2023-07-22T01:48:20;99042.19;;;11.79;100.00
21240;BME280;10778;48.962;9.018;2023-07-22T01:50:48;99032.03;;;11.84;100.00
21240;BME280;10778;48.962;9.018;2023-07-22T01:53:13;99029.63;;;11.73;100.00
21240;BME280;10778;48.962;9.018;2023-07-22T01:55:39;99029.50;;;11.64;100.00
21240;BME280;10778;48.962;9.018;2023-07-22T01:58:05;99022.28;;;11.66;100.00
21240;BME280;10778;48.962;9.018;2023-07-22T02:00:31;99025.06;;;11.65;100.00
21240;BME280;10778;48.962;9.018;2023-07-22T02:02:57;99037.13;;;11.67;100.00
21240;BME280;10778;48.962;9.018;2023-07-22T02:05:23;99037.72;;;11.61;100.00
21240;BME280;10778;48.962;9.018;2023-07-22T02:07:51;99027.47;;;11.58;100.00
21240;BME280;10778;48.962;9.018;2023-07-22T02:10:17;99027.59;;;11.57;100.00
21240;BME280;10778;48.962;9.018;2023-07-22T02:12:43;99020.00;;;11.53;100.00
21240;BME280;10778;48.962;9.018;2023-07-22T02:15:09;99024.41;;;11.53;100.00
21240;BME280;10778;48.962;9.018;2023-07-22T02:17:35;99023.91;;;11.49;100.00
21240;BME280;10778;48.962;9.018;2023-07-22T02:20:02;99028.31;;;11.49;100.00
21240;BME280;10778;48.962;9.018;2023-07-22T02:22:28;99030.53;;;11.53;100.00
21240;BME280;10778;48.962;9.018;2023-07-22T02:24:54;99035.41;;;11.48;100.00
21240;BME280;10778;48.962;9.018;2023-07-22T02:27:20;99033.59;;;11.49;100.00
21240;BME280;10778;48.962;9.018;2023-07-22T02:29:46;99033.00;;;11.55;100.00
21240;BME280;10778;48.962;9.018;2023-07-22T02:32:12;99028.03;;;11.52;100.00
21240;BME280;10778;48.962;9.018;2023-07-22T02:34:38;99039.50;;;11.61;100.00
21240;BME280;10778;48.962;9.018;2023-07-22T02:37:04;99044.28;;;11.47;100.00
21240;BME280;10778;48.962;9.018;2023-07-22T02:39:30;99039.72;;;11.49;100.00
21240;BME280;10778;48.962;9.018;2023-07-22T02:41:56;99043.81;;;11.24;100.00
21240;BME280;10778;48.962;9.018;2023-07-22T02:44:22;99029.16;;;11.12;100.00
21240;BME280;10778;48.962;9.018;2023-07-22T02:46:48;99040.53;;;11.02;100.00
21240;BME280;10778;48.962;9.018;2023-07-22T02:49:15;99045.00;;;11.02;100.00
21240;BME280;10778;48.962;9.018;2023-07-22T02:51:41;99040.53;;;11.02;100.00
21240;BME280;10778;48.962;9.018;2023-07-22T02:54:06;99043.03;;;11.04;100.00
21240;BME280;10778;48.962;9.018;2023-07-22T02:56:32;99039.44;;;11.05;100.00
21240;BME280;10778;48.962;9.018;2023-07-22T02:58:58;99040.00;;;11.08;100.00
21240;BME280;10778;48.962;9.018;2023-07-22T03:01:24;99048.44;;;11.02;100.00
21240;BME280;10778;48.962;9.018;2023-07-22T03:03:50;99038.47;;;11.06;100.00
21240;BME280;10778;48.962;9.018;2023-07-22T03:06:17;99033.19;;;11.06;100.00
21240;BME280;10778;48.962;9.018;2023-07-22T03:08:43;99029.03;;;11.13;100.00
21240;BME280;10778;48.962;9.018;2023-07-22T03:11:09;99023.50;;;11.06;100.00
21240;BME280;10778;48.962;9.018;2023-07-22T03:13:35;99029.06;;;10.93;100.00
21240;BME280;10778;48.962;9.018;2023-07-22T03:16:01;99030.47;;;10.88;100.00
21240;BME280;10778;48.962;9.018;2023-07-22T03:18:30;99038.50;;;10.86;100.00
21240;BME280;10778;48.962;9.018;2023-07-22T03:20:57;99042.78;;;10.87;100.00
21240;BME280;10778;48.962;9.018;2023-07-22T03:23:23;99042.25;;;10.84;100.00
21240;BME280;10778;48.962;9.018;2023-07-22T03:25:49;99035.31;;;10.82;100.00
21240;BME280;10778;48.962;9.018;2023-07-22T03:28:15;99032.97;;;10.79;100.00
21240;BME280;10778;48.962;9.018;2023-07-22T03:30:42;99025.38;;;10.76;100.00
21240;BME280;10778;48.962;9.018;2023-07-22T03:33:08;99027.44;;;10.73;100.00
21240;BME280;10778;48.962;9.018;2023-07-22T03:35:34;99028.41;;;10.72;100.00
21240;BME280;10778;48.962;9.018;2023-07-22T03:38:01;99032.88;;;10.71;100.00
21240;BME280;10778;48.962;9.018;2023-07-22T03:40:27;99032.56;;;10.74;100.00
21240;BME280;10778;48.962;9.018;2023-07-22T03:42:56;99034.22;;;10.75;100.00
21240;BME280;10778;48.962;9.018;2023-07-22T03:45:23;99038.81;;;10.73;100.00
21240;BME280;10778;48.962;9.018;2023-07-22T03:47:52;99035.63;;;10.70;100.00
21240;BME280;10778;48.962;9.018;2023-07-22T03:50:18;99042.53;;;10.71;100.00
21240;BME280;10778;48.962;9.018;2023-07-22T03:52:44;99043.25;;;10.63;100.00
21240;BME280;10778;48.962;9.018;2023-07-22T03:55:11;99046.16;;;10.60;100.00
21240;BME280;10778;48.962;9.018;2023-07-22T03:57:37;99036.03;;;10.65;100.00
21240;BME280;10778;48.962;9.018;2023-07-22T04:00:03;99045.59;;;10.66;100.00
21240;BME280;10778;48.962;9.018;2023-07-22T04:02:38;99047.13;;;10.69;100.00
21240;BME280;10778;48.962;9.018;2023-07-22T04:05:04;99050.31;;;10.72;100.00
21240;BME280;10778;48.962;9.018;2023-07-22T04:07:31;99043.91;;;10.75;100.00
21240;BME280;10778;48.962;9.018;2023-07-22T04:09:57;99048.19;;;10.86;100.00
21240;BME280;10778;48.962;9.018;2023-07-22T04:12:23;99048.75;;;10.89;100.00
21240;BME280;10778;48.962;9.018;2023-07-22T04:14:49;99051.38;;;10.89;100.00
21240;BME280;10778;48.962;9.018;2023-07-22T04:17:15;99051.41;;;10.70;100.00
21240;BME280;10778;48.962;9.018;2023-07-22T04:19:41;99050.84;;;10.66;100.00
21240;BME280;10778;48.962;9.018;2023-07-22T04:22:13;99047.81;;;10.61;100.00
21240;BME280;10778;48.962;9.018;2023-07-22T04:24:39;99052.78;;;10.64;100.00
21240;BME280;10778;48.962;9.018;2023-07-22T04:27:05;99048.66;;;10.71;100.00
21240;BME280;10778;48.962;9.018;2023-07-22T04:29:31;99051.09;;;10.82;100.00
21240;BME280;10778;48.962;9.018;2023-07-22T04:32:01;99044.03;;;10.93;100.00
21240;BME280;10778;48.962;9.018;2023-07-22T04:34:31;99044.69;;;11.05;100.00
21240;BME280;10778;48.962;9.018;2023-07-22T04:36:57;99043.69;;;11.16;100.00
21240;BME280;10778;48.962;9.018;2023-07-22T04:39:24;99046.00;;;11.29;100.00
21240;BME280;10778;48.962;9.018;2023-07-22T04:41:50;99041.25;;;11.42;100.00
21240;BME280;10778;48.962;9.018;2023-07-22T04:44:17;99040.13;;;11.45;100.00
21240;BME280;10778;48.962;9.018;2023-07-22T04:46:43;99039.84;;;11.48;100.00
21240;BME280;10778;48.962;9.018;2023-07-22T04:49:09;99042.69;;;11.64;100.00
21240;BME280;10778;48.962;9.018;2023-07-22T04:51:35;99046.84;;;11.67;100.00
21240;BME280;10778;48.962;9.018;2023-07-22T04:54:01;99044.59;;;11.72;100.00
21240;BME280;10778;48.962;9.018;2023-07-22T04:56:27;99041.84;;;11.92;100.00
21240;BME280;10778;48.962;9.018;2023-07-22T04:58:53;99044.13;;;12.05;100.00
21240;BME280;10778;48.962;9.018;2023-07-22T05:01:19;99037.59;;;12.09;100.00
21240;BME280;10778;48.962;9.018;2023-07-22T05:03:45;99049.66;;;12.30;100.00
21240;BME280;10778;48.962;9.018;2023-07-22T05:06:11;99053.38;;;12.19;100.00
21240;BME280;10778;48.962;9.018;2023-07-22T05:08:37;99054.28;;;12.00;100.00
21240;BME280;10778;48.962;9.018;2023-07-22T05:11:04;99042.34;;;12.42;100.00
21240;BME280;10778;48.962;9.018;2023-07-22T05:13:30;99048.25;;;12.80;100.00
21240;BME280;10778;48.962;9.018;2023-07-22T05:15:56;99044.72;;;12.89;100.00
21240;BME280;10778;48.962;9.018;2023-07-22T05:18:22;99045.91;;;12.95;100.00
21240;BME280;10778;48.962;9.018;2023-07-22T05:20:48;99049.47;;;13.12;100.00
21240;BME280;10778;48.962;9.018;2023-07-22T05:23:14;99042.69;;;13.71;100.00
21240;BME280;10778;48.962;9.018;2023-07-22T05:25:40;99048.88;;;13.88;100.00
21240;BME280;10778;48.962;9.018;2023-07-22T05:28:06;99048.06;;;14.04;100.00
21240;BME280;10778;48.962;9.018;2023-07-22T05:30:32;99054.38;;;14.11;100.00
21240;BME280;10778;48.962;9.018;2023-07-22T05:32:58;99054.78;;;14.66;100.00
21240;BME280;10778;48.962;9.018;2023-07-22T05:35:23;99051.63;;;14.96;98.26
21240;BME280;10778;48.962;9.018;2023-07-22T05:37:49;99050.16;;;14.85;95.33
21240;BME280;10778;48.962;9.018;2023-07-22T05:40:15;99056.59;;;14.65;98.14
21240;BME280;10778;48.962;9.018;2023-07-22T05:42:41;99057.13;;;14.86;97.76
21240;BME280;10778;48.962;9.018;2023-07-22T05:45:08;99054.91;;;15.06;97.33
21240;BME280;10778;48.962;9.018;2023-07-22T05:47:34;99054.59;;;15.09;98.26
21240;BME280;10778;48.962;9.018;2023-07-22T05:50:00;99054.94;;;15.62;94.95
21240;BME280;10778;48.962;9.018;2023-07-22T05:52:26;99055.53;;;16.59;88.42
21240;BME280;10778;48.962;9.018;2023-07-22T05:54:52;99063.44;;;16.21;90.08
21240;BME280;10778;48.962;9.018;2023-07-22T05:57:18;99058.03;;;16.38;91.21
21240;BME280;10778;48.962;9.018;2023-07-22T05:59:44;99063.75;;;16.49;89.95
21240;BME280;10778;48.962;9.018;2023-07-22T06:02:13;99062.31;;;16.85;89.10
21240;BME280;10778;48.962;9.018;2023-07-22T06:04:39;99060.50;;;17.24;86.57
21240;BME280;10778;48.962;9.018;2023-07-22T06:07:05;99060.66;;;16.84;87.62
21240;BME280;10778;48.962;9.018;2023-07-22T06:09:31;99059.66;;;17.24;85.12
21240;BME280;10778;48.962;9.018;2023-07-22T06:11:57;99063.59;;;17.58;86.55
21240;BME280;10778;48.962;9.018;2023-07-22T06:14:23;99060.94;;;17.58;84.00
21240;BME280;10778;48.962;9.018;2023-07-22T06:16:49;99062.13;;;17.70;82.76
21240;BME280;10778;48.962;9.018;2023-07-22T06:19:15;99069.25;;;17.85;82.21
21240;BME280;10778;48.962;9.018;2023-07-22T06:21:40;99067.75;;;18.12;81.30
21240;BME280;10778;48.962;9.018;2023-07-22T06:24:06;99075.69;;;17.90;80.65
21240;BME280;10778;48.962;9.018;2023-07-22T06:26:32;99067.84;;;18.04;82.67
21240;BME280;10778;48.962;9.018;2023-07-22T06:28:58;99072.09;;;17.98;81.50
21240;BME280;10778;48.962;9.018;2023-07-22T06:31:24;99071.13;;;18.43;80.53
21240;BME280;10778;48.962;9.018;2023-07-22T06:33:59;99069.25;;;18.37;79.12
21240;BME280;10778;48.962;9.018;2023-07-22T06:36:26;99064.09;;;18.57;79.53
21240;BME280;10778;48.962;9.018;2023-07-22T06:38:52;99064.38;;;18.90;77.68
21240;BME280;10778;48.962;9.018;2023-07-22T06:41:18;99062.28;;;18.86;78.37
21240;BME280;10778;48.962;9.018;2023-07-22T06:43:45;99061.91;;;19.11;76.22
21240;BME280;10778;48.962;9.018;2023-07-22T06:46:10;99064.94;;;19.43;76.41
21240;BME280;10778;48.962;9.018;2023-07-22T06:48:36;99059.50;;;20.00;74.76
21240;BME280;10778;48.962;9.018;2023-07-22T06:51:02;99063.09;;;19.85;74.70
21240;BME280;10778;48.962;9.018;2023-07-22T06:53:28;99067.09;;;19.61;77.09
21240;BME280;10778;48.962;9.018;2023-07-22T06:55:54;99067.91;;;20.10;74.00
21240;BME280;10778;48.962;9.018;2023-07-22T06:58:20;99062.28;;;19.43;76.13
21240;BME280;10778;48.962;9.018;2023-07-22T07:00:52;99061.63;;;19.83;75.55
21240;BME280;10778;48.962;9.018;2023-07-22T07:03:19;99056.88;;;20.27;73.66
21240;BME280;10778;48.962;9.018;2023-07-22T07:05:52;99056.88;;;20.27;72.36
21240;BME280;10778;48.962;9.018;2023-07-22T07:08:18;99058.78;;;19.42;77.80
21240;BME280;10778;48.962;9.018;2023-07-22T07:10:44;99064.22;;;20.11;74.83
21240;BME280;10778;48.962;9.018;2023-07-22T07:13:10;99063.69;;;20.50;73.17
21240;BME280;10778;48.962;9.018;2023-07-22T07:15:37;99058.81;;;20.94;71.38
21240;BME280;10778;48.962;9.018;2023-07-22T07:18:03;99053.00;;;20.36;71.46
21240;BME280;10778;48.962;9.018;2023-07-22T07:20:29;99054.66;;;20.57;72.80
21240;BME280;10778;48.962;9.018;2023-07-22T07:22:55;99060.81;;;20.65;71.68
21240;BME280;10778;48.962;9.018;2023-07-22T07:25:21;99067.72;;;20.12;74.27
21240;BME280;10778;48.962;9.018;2023-07-22T07:27:48;99063.50;;;20.71;73.25
21240;BME280;10778;48.962;9.018;2023-07-22T07:30:14;99063.94;;;20.95;70.68
21240;BME280;10778;48.962;9.018;2023-07-22T07:32:40;99063.75;;;20.97;70.90
21240;BME280;10778;48.962;9.018;2023-07-22T07:35:06;99066.19;;;21.05;71.33
21240;BME280;10778;48.962;9.018;2023-07-22T07:37:32;99067.50;;;21.68;68.46
21240;BME280;10778;48.962;9.018;2023-07-22T07:39:58;99062.72;;;22.23;67.41
21240;BME280;10778;48.962;9.018;2023-07-22T07:42:28;99066.69;;;22.13;67.13
21240;BME280;10778;48.962;9.018;2023-07-22T07:44:54;99067.28;;;22.15;67.50
21240;BME280;10778;48.962;9.018;2023-07-22T07:47:20;99064.91;;;22.39;65.12
21240;BME280;10778;48.962;9.018;2023-07-22T07:49:46;99070.81;;;22.55;64.91
21240;BME280;10778;48.962;9.018;2023-07-22T07:52:12;99067.34;;;22.73;64.80
21240;BME280;10778;48.962;9.018;2023-07-22T07:54:38;99061.97;;;22.98;63.34
21240;BME280;10778;48.962;9.018;2023-07-22T07:57:04;99056.44;;;23.19;60.66
21240;BME280;10778;48.962;9.018;2023-07-22T07:59:31;99058.63;;;23.47;59.26
21240;BME280;10778;48.962;9.018;2023-07-22T08:01:57;99051.28;;;23.17;60.12
21240;BME280;10778;48.962;9.018;2023-07-22T08:04:23;99046.41;;;24.00;57.49
21240;BME280;10778;48.962;9.018;2023-07-22T08:06:49;99056.97;;;24.33;55.03
21240;BME280;10778;48.962;9.018;2023-07-22T08:09:15;99053.31;;;24.27;54.54
21240;BME280;10778;48.962;9.018;2023-07-22T08:11:45;99041.72;;;24.26;54.76
21240;BME280;10778;48.962;9.018;2023-07-22T08:14:11;99045.84;;;24.29;53.62
21240;BME280;10778;48.962;9.018;2023-07-22T08:16:37;99038.94;;;24.33;53.08
21240;BME280;10778;48.962;9.018;2023-07-22T08:19:03;99045.16;;;24.46;52.82
21240;BME280;10778;48.962;9.018;2023-07-22T08:21:30;99037.97;;;24.15;53.90
21240;BME280;10778;48.962;9.018;2023-07-22T08:23:56;99043.34;;;24.15;54.18
21240;BME280;10778;48.962;9.018;2023-07-22T08:26:22;99047.84;;;23.84;55.86
21240;BME280;10778;48.962;9.018;2023-07-22T08:28:48;99050.88;;;23.57;56.29
21240;BME280;10778;48.962;9.018;2023-07-22T08:31:15;99040.28;;;24.12;53.70
21240;BME280;10778;48.962;9.018;2023-07-22T08:33:41;99052.34;;;23.91;53.84
21240;BME280;10778;48.962;9.018;2023-07-22T08:36:08;99036.47;;;24.01;52.18
21240;BME280;10778;48.962;9.018;2023-07-22T08:38:34;99038.53;;;23.87;54.00
21240;BME280;10778;48.962;9.018;2023-07-22T08:41:00;99030.56;;;24.11;53.22
21240;BME280;10778;48.962;9.018;2023-07-22T08:43:27;99034.31;;;23.91;52.79
21240;BME280;10778;48.962;9.018;2023-07-22T08:45:54;99025.06;;;24.48;54.03
21240;BME280;10778;48.962;9.018;2023-07-22T08:48:21;99027.22;;;24.94;50.81
21240;BME280;10778;48.962;9.018;2023-07-22T08:50:59;99015.31;;;24.78;51.20
21240;BME280;10778;48.962;9.018;2023-07-22T08:53:29;99016.69;;;25.04;50.15
21240;BME280;10778;48.962;9.018;2023-07-22T08:55:55;99024.06;;;24.31;53.18
21240;BME280;10778;48.962;9.018;2023-07-22T08:58:22;99010.16;;;25.00;52.66
21240;BME280;10778;48.962;9.018;2023-07-22T09:00:50;99010.84;;;25.07;50.86
21240;BME280;10778;48.962;9.018;2023-07-22T09:03:19;99029.22;;;23.52;54.49
21240;BME280;10778;48.962;9.018;2023-07-22T09:05:46;99007.63;;;24.51;50.96
21240;BME280;10778;48.962;9.018;2023-07-22T09:08:12;99005.25;;;25.50;49.81
21240;BME280;10778;48.962;9.018;2023-07-22T09:10:38;99001.59;;;25.15;50.21
21240;BME280;10778;48.962;9.018;2023-07-22T09:13:05;99006.50;;;25.18;51.29
21240;BME280;10778;48.962;9.018;2023-07-22T09:15:34;99007.63;;;25.87;49.19
21240;BME280;10778;48.962;9.018;2023-07-22T09:18:02;99010.81;;;24.05;51.14
21240;BME280;10778;48.962;9.018;2023-07-22T09:20:29;99008.59;;;23.53;52.30
21240;BME280;10778;48.962;9.018;2023-07-22T09:22:55;99012.38;;;23.94;53.68
21240;BME280;10778;48.962;9.018;2023-07-22T09:25:22;99009.16;;;23.73;51.33
21240;BME280;10778;48.962;9.018;2023-07-22T09:27:50;99004.28;;;23.33;52.76
21240;BME280;10778;48.962;9.018;2023-07-22T09:32:50;98998.13;;;23.44;51.31
21240;BME280;10778;48.962;9.018;2023-07-22T09:35:19;98990.50;;;23.60;51.85
21240;BME280;10778;48.962;9.018;2023-07-22T09:37:46;99001.56;;;22.96;52.11
21240;BME280;10778;48.962;9.018;2023-07-22T09:40:20;98997.91;;;23.09;51.32
21240;BME280;10778;48.962;9.018;2023-07-22T09:42:47;98999.22;;;22.99;51.12
21240;BME280;10778;48.962;9.018;2023-07-22T09:45:13;99007.66;;;22.59;54.99
21240;BME280;10778;48.962;9.018;2023-07-22T09:47:44;99002.78;;;22.75;53.81
21240;BME280;10778;48.962;9.018;2023-07-22T09:50:13;98994.16;;;23.96;52.10
21240;BME280;10778;48.962;9.018;2023-07-22T09:55:20;98980.22;;;25.49;47.51
21240;BME280;10778;48.962;9.018;2023-07-22T09:57:50;98976.94;;;25.47;46.35
21240;BME280;10778;48.962;9.018;2023-07-22T10:00:16;98968.97;;;25.81;47.38
21240;BME280;10778;48.962;9.018;2023-07-22T10:02:51;98976.81;;;25.42;46.54
21240;BME280;10778;48.962;9.018;2023-07-22T10:05:18;98970.34;;;25.02;46.57
21240;BME280;10778;48.962;9.018;2023-07-22T10:07:54;98972.72;;;25.39;46.28
21240;BME280;10778;48.962;9.018;2023-07-22T10:10:24;98966.06;;;24.11;45.51
21240;BME280;10778;48.962;9.018;2023-07-22T10:12:51;98965.75;;;24.31;45.92
21240;BME280;10778;48.962;9.018;2023-07-22T10:15:18;98967.84;;;25.24;45.29
21240;BME280;10778;48.962;9.018;2023-07-22T10:17:45;98952.44;;;25.61;42.96
21240;BME280;10778;48.962;9.018;2023-07-22T10:20:13;98959.31;;;26.32;44.04
21240;BME280;10778;48.962;9.018;2023-07-22T10:22:43;98952.91;;;27.34;44.07
21240;BME280;10778;48.962;9.018;2023-07-22T10:25:12;98951.22;;;26.49;42.41
21240;BME280;10778;48.962;9.018;2023-07-22T10:27:39;98958.09;;;26.39;43.50
21240;BME280;10778;48.962;9.018;2023-07-22T10:30:14;98956.06;;;25.54;43.26
21240;BME280;10778;48.962;9.018;2023-07-22T10:32:48;98963.94;;;26.88;42.79
21240;BME280;10778;48.962;9.018;2023-07-22T10:38:14;98962.72;;;25.23;42.52
21240;BME280;10778;48.962;9.018;2023-07-22T10:40:54;98958.53;;;24.55;44.89
21240;BME280;10778;48.962;9.018;2023-07-22T10:43:39;98954.75;;;24.21;45.12
21240;BME280;10778;48.962;9.018;2023-07-22T10:46:08;98965.44;;;23.97;46.22
21240;BME280;10778;48.962;9.018;2023-07-22T10:48:36;98966.00;;;23.99;47.12
21240;BME280;10778;48.962;9.018;2023-07-22T10:51:11;98972.16;;;23.57;47.90
21240;BME280;10778;48.962;9.018;2023-07-22T10:53:44;98960.16;;;23.60;48.54
21240;BME280;10778;48.962;9.018;2023-07-22T10:56:23;98958.22;;;24.76;47.91
21240;BME280;10778;48.962;9.018;2023-07-22T11:04:23;98949.53;;;25.50;46.51
21240;BME280;10778;48.962;9.018;2023-07-22T11:07:02;98944.81;;;25.58;46.47
21240;BME280;10778;48.962;9.018;2023-07-22T11:14:30;98937.34;;;25.77;44.17
21240;BME280;10778;48.962;9.018;2023-07-22T11:16:59;98933.38;;;25.79;43.46
21240;BME280;10778;48.962;9.018;2023-07-22T11:19:26;98925.94;;;25.87;45.11
21240;BME280;10778;48.962;9.018;2023-07-22T11:21:53;98919.13;;;25.84;43.24
21240;BME280;10778;48.962;9.018;2023-07-22T11:24:22;98920.38;;;26.10;44.50
21240;BME280;10778;48.962;9.018;2023-07-22T11:26:49;98922.09;;;25.53;44.68
21240;BME280;10778;48.962;9.018;2023-07-22T11:29:16;98916.63;;;25.48;44.21
21240;BME280;10778;48.962;9.018;2023-07-22T11:31:43;98901.50;;;26.10;42.83
21240;BME280;10778;48.962;9.018;2023-07-22T11:34:19;98908.97;;;25.86;44.24
21240;BME280;10778;48.962;9.018;2023-07-22T11:36:47;98905.97;;;26.73;43.30
21240;BME280;10778;48.962;9.018;2023-07-22T11:39:15;98889.03;;;27.00;42.85
21240;BME280;10778;48.962;9.018;2023-07-22T11:41:43;98892.22;;;26.35;42.65
21240;BME280;10778;48.962;9.018;2023-07-22T11:44:11;98900.72;;;26.27;43.40
21240;BME280;10778;48.962;9.018;2023-07-22T11:47:01;98890.84;;;25.52;43.83
21240;BME280;10778;48.962;9.018;2023-07-22T11:49:37;98885.53;;;26.21;44.87
21240;BME280;10778;48.962;9.018;2023-07-22T11:52:11;98882.66;;;25.47;43.73
21240;BME280;10778;48.962;9.018;2023-07-22T11:54:39;98876.03;;;24.97;44.27
21240;BME280;10778;48.962;9.018;2023-07-22T11:57:23;98871.50;;;25.26;43.26
21240;BME280;10778;48.962;9.018;2023-07-22T11:59:51;98879.44;;;25.04;43.23
21240;BME280;10778;48.962;9.018;2023-07-22T12:02:22;98865.56;;;25.88;42.96
21240;BME280;10778;48.962;9.018;2023-07-22T12:09:49;98860.66;;;26.36;42.39
21240;BME280;10778;48.962;9.018;2023-07-22T12:12:15;98860.03;;;26.11;42.49
21240;BME280;10778;48.962;9.018;2023-07-22T12:14:42;98857.63;;;26.89;42.85
21240;BME280;10778;48.962;9.018;2023-07-22T12:17:08;98847.44;;;27.23;42.32
21240;BME280;10778;48.962;9.018;2023-07-22T12:19:35;98846.91;;;26.99;43.43
21240;BME280;10778;48.962;9.018;2023-07-22T12:22:02;98860.69;;;26.58;43.38
21240;BME280;10778;48.962;9.018;2023-07-22T12:24:28;98853.16;;;27.00;43.41
21240;BME280;10778;48.962;9.018;2023-07-22T12:26:54;98851.34;;;27.60;41.27
21240;BME280;10778;48.962;9.018;2023-07-22T12:29:20;98840.25;;;27.62;41.39
21240;BME280;10778;48.962;9.018;2023-07-22T12:31:48;98853.44;;;26.81;41.88
21240;BME280;10778;48.962;9.018;2023-07-22T12:34:14;98850.63;;;26.93;41.29
21240;BME280;10778;48.962;9.018;2023-07-22T12:36:40;98842.28;;;26.33;42.68
21240;BME280;10778;48.962;9.018;2023-07-22T12:39:07;98848.78;;;26.54;43.49
21240;BME280;10778;48.962;9.018;2023-07-22T12:41:32;98839.00;;;26.48;43.35
21240;BME280;10778;48.962;9.018;2023-07-22T12:43:58;98840.38;;;26.73;44.33
21240;BME280;10778;48.962;9.018;2023-07-22T12:46:24;98832.81;;;26.52;43.54
21240;BME280;10778;48.962;9.018;2023-07-22T12:48:50;98822.00;;;26.92;42.28
21240;BME280;10778;48.962;9.018;2023-07-22T12:51:16;98828.03;;;27.26;41.79
21240;BME280;10778;48.962;9.018;2023-07-22T12:53:42;98825.75;;;26.68;40.94
21240;BME280;10778;48.962;9.018;2023-07-22T12:56:08;98831.31;;;26.39;41.99
21240;BME280;10778;48.962;9.018;2023-07-22T12:58:34;98831.88;;;26.19;42.77
21240;BME280;10778;48.962;9.018;2023-07-22T13:01:00;98820.13;;;26.92;42.16
21240;BME280;10778;48.962;9.018;2023-07-22T13:03:26;98812.69;;;26.60;42.28
21240;BME280;10778;48.962;9.018;2023-07-22T13:05:52;98810.50;;;27.02;42.40
21240;BME280;10778;48.962;9.018;2023-07-22T13:08:18;98816.47;;;26.37;43.33
21240;BME280;10778;48.962;9.018;2023-07-22T13:10:44;98823.59;;;26.48;42.29
21240;BME280;10778;48.962;9.018;2023-07-22T13:13:12;98822.63;;;26.54;43.04
21240;BME280;10778;48.962;9.018;2023-07-22T13:15:38;98818.25;;;26.93;42.61
21240;BME280;10778;48.962;9.018;2023-07-22T13:18:04;98817.56;;;27.35;41.37